FIN2KK EFRO-EFHK
Flight info
| Callsign | FIN2KK |
|---|---|
| Flight time | 1h 4m |
| Altitude | 37000 |
| Route | RENVI Y86 EVSET DCT IBOSU Y86 LUSEP |
| Aircraft | A321/M-SDE1E2E3FGIM1RWXY/LB1 |
Departure
| Time | 2026-05-05 09:36 |
|---|---|
| Airport | Rovaniemi Airport (EFRO) |
Arrival
| Time | 2026-05-05 10:40 |
|---|---|
| Airport | Helsinki Vantaa Airport (EFHK) |
| Time | Latitude | Longitude | Altitude | Speed | Heading |
|---|---|---|---|---|---|
| 2026-05-05 09:12 | 66.55866 | 25.82724 | 641 ft | 0 kts | 155° |
| 2026-05-05 09:28 | 66.55866 | 25.82723 | 641 ft | 1 kts | 155° |
| 2026-05-05 09:29 | 66.55888 | 25.82699 | 645 ft | 4 kts | 161° |
| 2026-05-05 09:29 | 66.55903 | 25.82689 | 646 ft | 2 kts | 239° |
| 2026-05-05 09:29 | 66.55904 | 25.82694 | 647 ft | 0 kts | 240° |
| 2026-05-05 09:31 | 66.55896 | 25.82607 | 639 ft | 11 kts | 262° |
| 2026-05-05 09:32 | 66.55839 | 25.82360 | 647 ft | 21 kts | 216° |
| 2026-05-05 09:32 | 66.55706 | 25.82110 | 636 ft | 25 kts | 219° |
| 2026-05-05 09:32 | 66.55566 | 25.81836 | 634 ft | 24 kts | 216° |
| 2026-05-05 09:32 | 66.55448 | 25.81612 | 639 ft | 18 kts | 217° |
| 2026-05-05 09:33 | 66.55366 | 25.81451 | 647 ft | 12 kts | 222° |
| 2026-05-05 09:33 | 66.55340 | 25.81257 | 644 ft | 14 kts | 281° |
| 2026-05-05 09:33 | 66.55395 | 25.81116 | 647 ft | 10 kts | 338° |
| 2026-05-05 09:33 | 66.55482 | 25.81135 | 645 ft | 14 kts | 33° |
| 2026-05-05 09:34 | 66.55510 | 25.81187 | 644 ft | 0 kts | 37° |
| 2026-05-05 09:35 | 66.55521 | 25.81208 | 642 ft | 19 kts | 37° |
| 2026-05-05 09:35 | 66.56577 | 25.83217 | 649 ft | 155 kts | 37° |
| 2026-05-05 09:35 | 66.57176 | 25.84372 | 917 ft | 163 kts | 36° |
| 2026-05-05 09:36 | 66.58386 | 25.86667 | 1976 ft | 162 kts | 36° |
| 2026-05-05 09:36 | 66.59007 | 25.87817 | 2303 ft | 174 kts | 36° |
| 2026-05-05 09:36 | 66.60034 | 25.89680 | 2719 ft | 190 kts | 36° |
| 2026-05-05 09:36 | 66.61066 | 25.91912 | 3264 ft | 201 kts | 55° |
| 2026-05-05 09:37 | 66.61438 | 25.95252 | 4117 ft | 206 kts | 92° |
| 2026-05-05 09:37 | 66.60889 | 25.98808 | 4649 ft | 232 kts | 120° |
| 2026-05-05 09:37 | 66.59930 | 26.02175 | 5529 ft | 239 kts | 124° |
| 2026-05-05 09:37 | 66.58859 | 26.05430 | 6469 ft | 245 kts | 133° |
| 2026-05-05 09:38 | 66.57362 | 26.07668 | 7369 ft | 257 kts | 160° |
| 2026-05-05 09:38 | 66.55538 | 26.08163 | 8060 ft | 278 kts | 186° |
| 2026-05-05 09:38 | 66.53666 | 26.06516 | 8772 ft | 292 kts | 205° |
| 2026-05-05 09:38 | 66.51825 | 26.04277 | 9646 ft | 297 kts | 205° |
| 2026-05-05 09:39 | 66.49914 | 26.01991 | 10057 ft | 319 kts | 204° |
| 2026-05-05 09:39 | 66.47844 | 25.99550 | 10477 ft | 336 kts | 204° |
| 2026-05-05 09:39 | 66.45702 | 25.97045 | 11242 ft | 342 kts | 204° |
| 2026-05-05 09:39 | 66.43530 | 25.94515 | 12146 ft | 345 kts | 204° |
| 2026-05-05 09:40 | 66.41340 | 25.91958 | 13078 ft | 349 kts | 204° |
| 2026-05-05 09:40 | 66.39093 | 25.89568 | 13880 ft | 353 kts | 195° |
| 2026-05-05 09:40 | 66.36665 | 25.88651 | 14653 ft | 355 kts | 182° |
| 2026-05-05 09:40 | 66.34182 | 25.88271 | 15463 ft | 359 kts | 182° |
| 2026-05-05 09:41 | 66.31707 | 25.87927 | 16236 ft | 363 kts | 182° |
| 2026-05-05 09:41 | 66.29164 | 25.87585 | 17003 ft | 367 kts | 182° |
| 2026-05-05 09:41 | 66.26602 | 25.87249 | 17742 ft | 371 kts | 181° |
| 2026-05-05 09:41 | 66.24011 | 25.86905 | 18386 ft | 374 kts | 181° |
| 2026-05-05 09:42 | 66.21392 | 25.86556 | 19040 ft | 377 kts | 181° |
| 2026-05-05 09:42 | 66.18754 | 25.86198 | 19699 ft | 380 kts | 182° |
| 2026-05-05 09:42 | 66.16135 | 25.85837 | 20333 ft | 383 kts | 182° |
| 2026-05-05 09:42 | 66.13461 | 25.85464 | 20947 ft | 386 kts | 182° |
| 2026-05-05 09:43 | 66.10771 | 25.85091 | 21557 ft | 389 kts | 182° |
| 2026-05-05 09:43 | 66.08054 | 25.84720 | 22149 ft | 391 kts | 181° |
| 2026-05-05 09:43 | 66.05327 | 25.84353 | 22715 ft | 394 kts | 181° |
| 2026-05-05 09:43 | 66.02576 | 25.83989 | 23233 ft | 396 kts | 181° |
| 2026-05-05 09:44 | 65.99810 | 25.83618 | 23661 ft | 399 kts | 181° |
| 2026-05-05 09:44 | 65.97030 | 25.83238 | 24087 ft | 401 kts | 181° |
| 2026-05-05 09:44 | 65.94237 | 25.82854 | 24522 ft | 403 kts | 183° |
| 2026-05-05 09:44 | 65.91424 | 25.82467 | 24949 ft | 405 kts | 183° |
| 2026-05-05 09:45 | 65.88640 | 25.82085 | 25408 ft | 407 kts | 184° |
| 2026-05-05 09:45 | 65.85805 | 25.81700 | 25840 ft | 409 kts | 185° |
| 2026-05-05 09:45 | 65.82956 | 25.81317 | 26236 ft | 412 kts | 184° |
| 2026-05-05 09:45 | 65.80078 | 25.80936 | 26604 ft | 414 kts | 185° |
| 2026-05-05 09:46 | 65.77180 | 25.80559 | 26973 ft | 417 kts | 185° |
| 2026-05-05 09:46 | 65.74267 | 25.80184 | 27345 ft | 420 kts | 185° |
| 2026-05-05 09:46 | 65.71364 | 25.79805 | 27713 ft | 423 kts | 185° |
| 2026-05-05 09:46 | 65.68411 | 25.79420 | 28076 ft | 425 kts | 185° |
| 2026-05-05 09:47 | 65.65447 | 25.79028 | 28443 ft | 427 kts | 186° |
| 2026-05-05 09:47 | 65.62461 | 25.78627 | 28806 ft | 430 kts | 186° |
| 2026-05-05 09:47 | 65.59467 | 25.78222 | 29155 ft | 432 kts | 186° |
| 2026-05-05 09:47 | 65.56494 | 25.77819 | 29468 ft | 434 kts | 186° |
| 2026-05-05 09:48 | 65.53468 | 25.77414 | 29745 ft | 436 kts | 186° |
| 2026-05-05 09:48 | 65.50423 | 25.77014 | 29997 ft | 438 kts | 186° |
| 2026-05-05 09:48 | 65.47368 | 25.76626 | 30250 ft | 440 kts | 186° |
| 2026-05-05 09:48 | 65.44297 | 25.76239 | 30481 ft | 442 kts | 186° |
| 2026-05-05 09:49 | 65.41211 | 25.75847 | 30736 ft | 443 kts | 186° |
| 2026-05-05 09:49 | 65.38172 | 25.75464 | 31055 ft | 442 kts | 186° |
| 2026-05-05 09:49 | 65.35098 | 25.75075 | 31376 ft | 442 kts | 186° |
| 2026-05-05 09:49 | 65.32024 | 25.74679 | 31708 ft | 441 kts | 187° |
| 2026-05-05 09:50 | 65.28949 | 25.74279 | 32019 ft | 440 kts | 187° |
| 2026-05-05 09:50 | 65.25929 | 25.73891 | 32344 ft | 439 kts | 187° |
| 2026-05-05 09:50 | 65.22877 | 25.73497 | 32693 ft | 438 kts | 188° |
| 2026-05-05 09:50 | 65.19838 | 25.73106 | 33022 ft | 437 kts | 188° |
| 2026-05-05 09:51 | 65.16791 | 25.72716 | 33328 ft | 437 kts | 188° |
| 2026-05-05 09:51 | 65.13751 | 25.72334 | 33596 ft | 437 kts | 188° |
| 2026-05-05 09:51 | 65.10700 | 25.71952 | 33835 ft | 437 kts | 187° |
| 2026-05-05 09:51 | 65.07692 | 25.71574 | 34067 ft | 438 kts | 187° |
| 2026-05-05 09:52 | 65.04645 | 25.71192 | 34296 ft | 438 kts | 187° |
| 2026-05-05 09:52 | 65.01599 | 25.70811 | 34532 ft | 438 kts | 187° |
| 2026-05-05 09:52 | 64.98557 | 25.70430 | 34756 ft | 437 kts | 188° |
| 2026-05-05 09:52 | 64.95547 | 25.70045 | 34981 ft | 437 kts | 188° |
| 2026-05-05 09:53 | 64.92509 | 25.69657 | 35186 ft | 437 kts | 188° |
| 2026-05-05 09:53 | 64.89469 | 25.69273 | 35379 ft | 437 kts | 188° |
| 2026-05-05 09:53 | 64.86423 | 25.68896 | 35562 ft | 438 kts | 188° |
| 2026-05-05 09:53 | 64.83382 | 25.68521 | 35740 ft | 438 kts | 188° |
| 2026-05-05 09:54 | 64.80336 | 25.68144 | 35918 ft | 438 kts | 187° |
| 2026-05-05 09:54 | 64.77274 | 25.67766 | 36084 ft | 438 kts | 187° |
| 2026-05-05 09:54 | 64.74265 | 25.67397 | 36238 ft | 438 kts | 187° |
| 2026-05-05 09:54 | 64.71215 | 25.67023 | 36405 ft | 438 kts | 187° |
| 2026-05-05 09:55 | 64.65133 | 25.66283 | 36475 ft | 435 kts | 188° |
| 2026-05-05 09:55 | 64.59076 | 25.65548 | 36488 ft | 434 kts | 188° |
| 2026-05-05 09:56 | 64.53088 | 25.64810 | 36496 ft | 434 kts | 188° |
| 2026-05-05 09:56 | 64.47045 | 25.64076 | 36465 ft | 434 kts | 188° |
| 2026-05-05 09:57 | 64.41018 | 25.63336 | 36495 ft | 433 kts | 188° |
| 2026-05-05 09:57 | 64.35036 | 25.62588 | 36512 ft | 433 kts | 188° |
| 2026-05-05 09:58 | 64.29012 | 25.61839 | 36488 ft | 432 kts | 188° |
| 2026-05-05 09:58 | 64.23015 | 25.61083 | 36518 ft | 432 kts | 188° |
| 2026-05-05 09:59 | 64.16999 | 25.60339 | 36521 ft | 431 kts | 188° |
| 2026-05-05 09:59 | 64.11041 | 25.59607 | 36529 ft | 431 kts | 188° |
| 2026-05-05 10:00 | 64.05041 | 25.58883 | 36530 ft | 431 kts | 188° |
| 2026-05-05 10:00 | 63.99047 | 25.58158 | 36504 ft | 431 kts | 188° |
| 2026-05-05 10:01 | 63.93069 | 25.57427 | 36523 ft | 430 kts | 188° |
| 2026-05-05 10:01 | 63.87128 | 25.56696 | 36532 ft | 429 kts | 188° |
| 2026-05-05 10:02 | 63.81159 | 25.55981 | 36542 ft | 429 kts | 188° |
| 2026-05-05 10:02 | 63.75192 | 25.55275 | 36541 ft | 429 kts | 188° |
| 2026-05-05 10:03 | 63.69212 | 25.54562 | 36551 ft | 429 kts | 188° |
| 2026-05-05 10:03 | 63.63291 | 25.53847 | 36518 ft | 429 kts | 188° |
| 2026-05-05 10:04 | 63.57311 | 25.53133 | 36537 ft | 429 kts | 188° |
| 2026-05-05 10:04 | 63.51339 | 25.52438 | 36544 ft | 429 kts | 188° |
| 2026-05-05 10:05 | 63.45413 | 25.51742 | 36560 ft | 429 kts | 188° |
| 2026-05-05 10:05 | 63.39439 | 25.51042 | 36565 ft | 429 kts | 188° |
| 2026-05-05 10:06 | 63.33469 | 25.50347 | 36563 ft | 428 kts | 188° |
| 2026-05-05 10:06 | 63.27533 | 25.49657 | 36544 ft | 429 kts | 189° |
| 2026-05-05 10:07 | 63.21593 | 25.48973 | 36549 ft | 429 kts | 189° |
| 2026-05-05 10:07 | 63.15618 | 25.48289 | 36562 ft | 429 kts | 188° |
| 2026-05-05 10:08 | 63.09639 | 25.47614 | 36569 ft | 429 kts | 188° |
| 2026-05-05 10:08 | 63.03708 | 25.46941 | 36574 ft | 429 kts | 188° |
| 2026-05-05 10:09 | 62.97728 | 25.46259 | 36542 ft | 429 kts | 189° |
| 2026-05-05 10:09 | 62.91751 | 25.45580 | 36568 ft | 429 kts | 189° |
| 2026-05-05 10:10 | 62.85820 | 25.44910 | 36557 ft | 428 kts | 189° |
| 2026-05-05 10:10 | 62.79872 | 25.44249 | 36579 ft | 427 kts | 189° |
| 2026-05-05 10:11 | 62.73922 | 25.43582 | 36592 ft | 427 kts | 189° |
| 2026-05-05 10:11 | 62.68013 | 25.42929 | 36595 ft | 427 kts | 189° |
| 2026-05-05 10:12 | 62.62070 | 25.42262 | 36575 ft | 427 kts | 189° |
| 2026-05-05 10:12 | 62.56168 | 25.41611 | 36580 ft | 426 kts | 189° |
| 2026-05-05 10:13 | 62.50232 | 25.40965 | 36589 ft | 426 kts | 189° |
| 2026-05-05 10:13 | 62.44303 | 25.40303 | 36592 ft | 426 kts | 189° |
| 2026-05-05 10:14 | 62.38384 | 25.39649 | 36427 ft | 422 kts | 189° |
| 2026-05-05 10:14 | 62.35455 | 25.39338 | 36163 ft | 422 kts | 190° |
| 2026-05-05 10:14 | 62.32519 | 25.39015 | 35922 ft | 432 kts | 190° |
| 2026-05-05 10:15 | 62.29502 | 25.38682 | 35678 ft | 434 kts | 190° |
| 2026-05-05 10:15 | 62.26480 | 25.38358 | 35439 ft | 433 kts | 190° |
| 2026-05-05 10:15 | 62.23478 | 25.38043 | 35202 ft | 430 kts | 190° |
| 2026-05-05 10:15 | 62.20491 | 25.37732 | 34962 ft | 427 kts | 190° |
| 2026-05-05 10:16 | 62.17550 | 25.37423 | 34740 ft | 432 kts | 191° |
| 2026-05-05 10:16 | 62.14543 | 25.37099 | 34517 ft | 434 kts | 191° |
| 2026-05-05 10:16 | 62.11533 | 25.36777 | 34237 ft | 432 kts | 191° |
| 2026-05-05 10:16 | 62.08543 | 25.36467 | 34009 ft | 428 kts | 191° |
| 2026-05-05 10:17 | 62.05585 | 25.36156 | 33734 ft | 424 kts | 191° |
| 2026-05-05 10:17 | 62.02638 | 25.35841 | 33130 ft | 419 kts | 192° |
| 2026-05-05 10:17 | 61.99745 | 25.35539 | 32602 ft | 411 kts | 192° |
| 2026-05-05 10:17 | 61.96944 | 25.35254 | 32141 ft | 403 kts | 192° |
| 2026-05-05 10:18 | 61.94164 | 25.34969 | 31642 ft | 396 kts | 193° |
| 2026-05-05 10:18 | 61.91428 | 25.34679 | 31143 ft | 390 kts | 193° |
| 2026-05-05 10:18 | 61.88728 | 25.34387 | 30656 ft | 384 kts | 194° |
| 2026-05-05 10:18 | 61.86082 | 25.34104 | 30163 ft | 378 kts | 194° |
| 2026-05-05 10:19 | 61.83472 | 25.33828 | 29664 ft | 373 kts | 194° |
| 2026-05-05 10:19 | 61.80890 | 25.33557 | 29067 ft | 367 kts | 194° |
| 2026-05-05 10:19 | 61.78383 | 25.33297 | 28448 ft | 363 kts | 194° |
| 2026-05-05 10:19 | 61.75866 | 25.33035 | 27937 ft | 358 kts | 194° |
| 2026-05-05 10:20 | 61.73372 | 25.32772 | 27641 ft | 358 kts | 195° |
| 2026-05-05 10:20 | 61.70881 | 25.32507 | 27202 ft | 357 kts | 195° |
| 2026-05-05 10:20 | 61.68408 | 25.32243 | 26748 ft | 355 kts | 194° |
| 2026-05-05 10:20 | 61.65970 | 25.31990 | 26323 ft | 353 kts | 194° |
| 2026-05-05 10:21 | 61.63523 | 25.31738 | 25901 ft | 351 kts | 195° |
| 2026-05-05 10:21 | 61.61082 | 25.31486 | 25472 ft | 348 kts | 195° |
| 2026-05-05 10:21 | 61.58669 | 25.31234 | 25077 ft | 346 kts | 195° |
| 2026-05-05 10:21 | 61.56265 | 25.30983 | 24674 ft | 344 kts | 195° |
| 2026-05-05 10:22 | 61.53879 | 25.30740 | 24274 ft | 342 kts | 195° |
| 2026-05-05 10:22 | 61.51510 | 25.30495 | 23875 ft | 339 kts | 195° |
| 2026-05-05 10:22 | 61.49195 | 25.30254 | 23489 ft | 337 kts | 195° |
| 2026-05-05 10:22 | 61.46852 | 25.30011 | 23055 ft | 335 kts | 195° |
| 2026-05-05 10:23 | 61.44533 | 25.29775 | 22629 ft | 333 kts | 195° |
| 2026-05-05 10:23 | 61.42221 | 25.29538 | 22220 ft | 330 kts | 195° |
| 2026-05-05 10:23 | 61.39930 | 25.29301 | 21821 ft | 328 kts | 195° |
| 2026-05-05 10:23 | 61.38417 | 25.29145 | 21554 ft | 327 kts | 195° |
| 2026-05-05 10:24 | 61.35409 | 25.28835 | 20953 ft | 326 kts | 194° |
| 2026-05-05 10:24 | 61.33143 | 25.28605 | 20598 ft | 326 kts | 194° |
| 2026-05-05 10:24 | 61.30881 | 25.28376 | 20189 ft | 325 kts | 194° |
| 2026-05-05 10:24 | 61.29389 | 25.28227 | 19911 ft | 323 kts | 194° |
| 2026-05-05 10:25 | 61.27147 | 25.28003 | 19497 ft | 321 kts | 195° |
| 2026-05-05 10:25 | 61.24914 | 25.27774 | 19092 ft | 319 kts | 195° |
| 2026-05-05 10:25 | 61.22698 | 25.27550 | 18682 ft | 317 kts | 195° |
| 2026-05-05 10:25 | 61.20497 | 25.27332 | 18278 ft | 316 kts | 195° |
| 2026-05-05 10:26 | 61.18308 | 25.27117 | 17862 ft | 314 kts | 195° |
| 2026-05-05 10:26 | 61.16136 | 25.26901 | 17441 ft | 312 kts | 195° |
| 2026-05-05 10:26 | 61.13969 | 25.26683 | 17054 ft | 310 kts | 194° |
| 2026-05-05 10:26 | 61.11838 | 25.26466 | 16656 ft | 308 kts | 194° |
| 2026-05-05 10:27 | 61.09692 | 25.26246 | 16268 ft | 307 kts | 194° |
| 2026-05-05 10:27 | 61.07564 | 25.26029 | 15884 ft | 305 kts | 194° |
| 2026-05-05 10:27 | 61.05446 | 25.25816 | 15461 ft | 304 kts | 194° |
| 2026-05-05 10:27 | 61.03353 | 25.25610 | 15125 ft | 304 kts | 194° |
| 2026-05-05 10:28 | 61.01236 | 25.25406 | 14749 ft | 302 kts | 194° |
| 2026-05-05 10:28 | 60.99135 | 25.25201 | 14371 ft | 301 kts | 194° |
| 2026-05-05 10:28 | 60.97047 | 25.24995 | 13995 ft | 299 kts | 194° |
| 2026-05-05 10:28 | 60.94970 | 25.24791 | 13703 ft | 299 kts | 193° |
| 2026-05-05 10:29 | 60.92890 | 25.24584 | 13466 ft | 298 kts | 193° |
| 2026-05-05 10:29 | 60.90846 | 25.24378 | 13141 ft | 297 kts | 193° |
| 2026-05-05 10:29 | 60.88785 | 25.24176 | 12758 ft | 296 kts | 193° |
| 2026-05-05 10:29 | 60.86731 | 25.23974 | 12370 ft | 295 kts | 193° |
| 2026-05-05 10:30 | 60.84683 | 25.23769 | 11986 ft | 294 kts | 193° |
| 2026-05-05 10:30 | 60.82646 | 25.23565 | 11600 ft | 292 kts | 192° |
| 2026-05-05 10:30 | 60.80616 | 25.23365 | 11144 ft | 290 kts | 192° |
| 2026-05-05 10:30 | 60.78604 | 25.23168 | 10612 ft | 289 kts | 192° |
| 2026-05-05 10:31 | 60.76604 | 25.22972 | 10091 ft | 288 kts | 191° |
| 2026-05-05 10:31 | 60.74603 | 25.22778 | 9547 ft | 287 kts | 192° |
| 2026-05-05 10:31 | 60.72617 | 25.22587 | 9032 ft | 285 kts | 191° |
| 2026-05-05 10:31 | 60.70665 | 25.22398 | 8488 ft | 284 kts | 191° |
| 2026-05-05 10:32 | 60.68693 | 25.22204 | 7911 ft | 283 kts | 190° |
| 2026-05-05 10:32 | 60.66724 | 25.22008 | 7341 ft | 284 kts | 189° |
| 2026-05-05 10:32 | 60.64753 | 25.21813 | 6798 ft | 283 kts | 188° |
| 2026-05-05 10:32 | 60.62779 | 25.21618 | 6249 ft | 283 kts | 188° |
| 2026-05-05 10:33 | 60.60803 | 25.21423 | 5683 ft | 284 kts | 188° |
| 2026-05-05 10:33 | 60.58832 | 25.21231 | 5157 ft | 281 kts | 188° |
| 2026-05-05 10:33 | 60.56909 | 25.21045 | 4642 ft | 279 kts | 187° |
| 2026-05-05 10:33 | 60.54967 | 25.20858 | 4103 ft | 279 kts | 188° |
| 2026-05-05 10:34 | 60.53078 | 25.20679 | 3965 ft | 263 kts | 188° |
| 2026-05-05 10:34 | 60.51292 | 25.20518 | 3840 ft | 250 kts | 188° |
| 2026-05-05 10:34 | 60.49595 | 25.20361 | 3685 ft | 238 kts | 188° |
| 2026-05-05 10:34 | 60.48000 | 25.20213 | 3595 ft | 224 kts | 188° |
| 2026-05-05 10:35 | 60.46490 | 25.20077 | 3465 ft | 210 kts | 188° |
| 2026-05-05 10:35 | 60.45077 | 25.19947 | 3337 ft | 195 kts | 189° |
| 2026-05-05 10:35 | 60.43775 | 25.19758 | 3167 ft | 180 kts | 198° |
| 2026-05-05 10:35 | 60.42669 | 25.18881 | 2971 ft | 164 kts | 219° |
| 2026-05-05 10:36 | 60.41858 | 25.17409 | 2774 ft | 151 kts | 234° |
| 2026-05-05 10:36 | 60.41158 | 25.15849 | 2581 ft | 148 kts | 234° |
| 2026-05-05 10:36 | 60.40472 | 25.14321 | 2385 ft | 146 kts | 234° |
| 2026-05-05 10:36 | 60.39792 | 25.12807 | 2178 ft | 146 kts | 234° |
| 2026-05-05 10:37 | 60.39088 | 25.11242 | 1951 ft | 147 kts | 232° |
| 2026-05-05 10:37 | 60.38430 | 25.09789 | 1766 ft | 134 kts | 233° |
| 2026-05-05 10:37 | 60.37815 | 25.08423 | 1592 ft | 130 kts | 234° |
| 2026-05-05 10:37 | 60.37216 | 25.07086 | 1436 ft | 127 kts | 234° |
| 2026-05-05 10:38 | 60.36617 | 25.05775 | 1241 ft | 127 kts | 233° |
| 2026-05-05 10:38 | 60.36022 | 25.04471 | 1050 ft | 126 kts | 234° |
| 2026-05-05 10:38 | 60.35435 | 25.03144 | 891 ft | 126 kts | 233° |
| 2026-05-05 10:38 | 60.34843 | 25.01834 | 712 ft | 127 kts | 232° |
| 2026-05-05 10:39 | 60.34260 | 25.00540 | 560 ft | 126 kts | 231° |
| 2026-05-05 10:39 | 60.33664 | 24.99227 | 396 ft | 128 kts | 230° |
| 2026-05-05 10:39 | 60.33058 | 24.97923 | 238 ft | 126 kts | 233° |
| 2026-05-05 10:39 | 60.32490 | 24.96646 | 188 ft | 112 kts | 231° |
| 2026-05-05 10:40 | 60.32044 | 24.95641 | 174 ft | 71 kts | 226° |
| 2026-05-05 10:40 | 60.31808 | 24.95127 | 174 ft | 41 kts | 226° |
| 2026-05-05 10:40 | 60.31618 | 24.94714 | 168 ft | 34 kts | 227° |
| 2026-05-05 10:40 | 60.31482 | 24.94581 | 164 ft | 22 kts | 153° |
| 2026-05-05 10:41 | 60.31407 | 24.94747 | 164 ft | 15 kts | 101° |
| 2026-05-05 10:41 | 60.31450 | 24.94907 | 166 ft | 12 kts | 47° |
| 2026-05-05 10:41 | 60.31509 | 24.95034 | 168 ft | 14 kts | 47° |
| 2026-05-05 10:41 | 60.31581 | 24.95192 | 169 ft | 17 kts | 48° |
| 2026-05-05 10:42 | 60.31760 | 24.95585 | 170 ft | 19 kts | 46° |
| 2026-05-05 10:42 | 60.31846 | 24.95775 | 169 ft | 18 kts | 47° |
| 2026-05-05 10:42 | 60.31931 | 24.95963 | 169 ft | 18 kts | 47° |
| 2026-05-05 10:43 | 60.32010 | 24.96137 | 169 ft | 16 kts | 47° |
| 2026-05-05 10:43 | 60.32090 | 24.96313 | 167 ft | 17 kts | 47° |
| 2026-05-05 10:43 | 60.32168 | 24.96486 | 168 ft | 16 kts | 47° |
| 2026-05-05 10:43 | 60.32240 | 24.96646 | 167 ft | 16 kts | 50° |
| 2026-05-05 10:44 | 60.32196 | 24.96793 | 165 ft | 13 kts | 149° |
| 2026-05-05 10:44 | 60.32121 | 24.96880 | 164 ft | 11 kts | 150° |
| 2026-05-05 10:44 | 60.32060 | 24.96950 | 163 ft | 8 kts | 150° |
| 2026-05-05 10:44 | 60.32017 | 24.96958 | 163 ft | 5 kts | 206° |
| 2026-05-05 10:45 | 60.31992 | 24.96921 | 164 ft | 4 kts | 217° |
| 2026-05-05 10:45 | 60.31978 | 24.96900 | 164 ft | 0 kts | 218° |